createdAt,value
2024-03-03T00:00:07.846Z,45.60
2024-03-03T00:02:35.467Z,49.30
2024-03-03T00:05:03.174Z,50.30
2024-03-03T00:07:31.042Z,42.10
2024-03-03T00:09:58.721Z,47.70
2024-03-03T00:12:26.258Z,48.00
2024-03-03T00:14:53.930Z,45.20
2024-03-03T00:17:21.482Z,50.90
2024-03-03T00:19:49.145Z,44.40
2024-03-03T00:22:16.877Z,43.70
2024-03-03T00:24:44.590Z,42.70
2024-03-03T00:27:12.230Z,44.40
2024-03-03T00:29:39.795Z,54.10
2024-03-03T00:32:07.355Z,53.40
2024-03-03T00:34:34.920Z,47.30
2024-03-03T00:37:02.727Z,58.10
2024-03-03T00:39:30.333Z,47.80
2024-03-03T00:41:58.000Z,54.00
2024-03-03T00:44:25.566Z,53.10
2024-03-03T00:46:53.317Z,46.20
2024-03-03T00:49:21.349Z,50.80
2024-03-03T00:51:49.162Z,51.30
2024-03-03T00:54:16.710Z,53.90
2024-03-03T00:56:44.382Z,50.20
2024-03-03T00:59:11.927Z,52.90
2024-03-03T01:01:39.592Z,47.20
2024-03-03T01:04:07.206Z,52.60
2024-03-03T01:06:34.929Z,51.90
2024-03-03T01:09:02.471Z,47.30
2024-03-03T01:11:30.182Z,52.10
2024-03-03T01:13:57.791Z,52.70
2024-03-03T01:16:25.359Z,52.10
2024-03-03T01:18:53.032Z,50.10
2024-03-03T01:21:20.591Z,54.60
2024-03-03T01:23:48.234Z,55.00
2024-03-03T01:26:15.789Z,54.30
2024-03-03T01:28:43.759Z,63.20
2024-03-03T01:31:11.397Z,54.20
2024-03-03T01:33:39.216Z,51.70
2024-03-03T01:36:06.861Z,56.10
2024-03-03T01:38:34.404Z,54.10
2024-03-03T01:41:02.075Z,51.70
2024-03-03T01:43:29.629Z,49.10
2024-03-03T01:45:57.316Z,53.20
2024-03-03T01:48:24.963Z,53.90
2024-03-03T01:50:52.933Z,48.20
2024-03-03T01:53:20.477Z,52.10
2024-03-03T01:55:48.041Z,47.30
2024-03-03T01:58:15.670Z,50.40
2024-03-03T02:00:43.497Z,50.80
2024-03-03T02:03:11.141Z,47.90
2024-03-03T02:05:38.813Z,43.40
2024-03-03T02:08:06.349Z,41.50
2024-03-03T02:10:34.014Z,41.40
2024-03-03T02:13:02.038Z,45.70
2024-03-03T02:15:29.740Z,42.80
2024-03-03T02:17:57.359Z,46.40
2024-03-03T02:20:25.592Z,40.10
2024-03-03T02:22:53.238Z,39.90
2024-03-03T02:25:20.990Z,38.20
2024-03-03T02:27:48.749Z,40.80
2024-03-03T02:30:16.421Z,37.10
2024-03-03T02:32:44.127Z,45.20
2024-03-03T02:35:12.048Z,40.70
2024-03-03T02:37:39.611Z,41.80
2024-03-03T02:40:07.239Z,40.10
2024-03-03T02:42:36.725Z,40.00
2024-03-03T02:45:04.848Z,36.10
2024-03-03T02:47:32.533Z,36.90
2024-03-03T02:50:00.229Z,37.40
2024-03-03T02:52:27.996Z,36.90
2024-03-03T02:54:55.811Z,36.30
2024-03-03T02:57:23.486Z,37.20
2024-03-03T02:59:51.014Z,34.40
2024-03-03T03:02:18.681Z,34.80
2024-03-03T03:04:46.235Z,32.00
2024-03-03T03:07:13.962Z,32.30
2024-03-03T03:09:41.720Z,33.40
2024-03-03T03:12:09.435Z,32.30
2024-03-03T03:14:37.302Z,32.20
2024-03-03T03:17:04.958Z,28.40
2024-03-03T03:19:32.518Z,27.60
2024-03-03T03:22:00.259Z,29.70
2024-03-03T03:24:27.987Z,32.70
2024-03-03T03:26:55.708Z,29.80
2024-03-03T03:29:23.263Z,32.60
2024-03-03T03:31:50.871Z,28.00
2024-03-03T03:34:18.564Z,27.70
2024-03-03T03:36:46.686Z,30.70
2024-03-03T03:39:14.450Z,32.10
2024-03-03T03:41:42.083Z,30.30
2024-03-03T03:44:09.752Z,29.70
2024-03-03T03:46:37.299Z,30.40
2024-03-03T03:49:04.926Z,31.50
2024-03-03T03:51:32.625Z,28.50
2024-03-03T03:54:00.701Z,28.20
2024-03-03T03:56:28.256Z,25.00
2024-03-03T03:58:55.814Z,25.70
2024-03-03T04:01:23.476Z,26.90
2024-03-03T04:03:51.280Z,27.10
2024-03-03T04:06:18.918Z,29.50
2024-03-03T04:08:46.565Z,28.40
2024-03-03T04:11:14.252Z,35.40
2024-03-03T04:13:41.879Z,37.80
2024-03-03T04:16:09.880Z,40.40
2024-03-03T04:18:37.422Z,38.20
2024-03-03T04:21:05.095Z,40.60
2024-03-03T04:23:32.663Z,39.30
2024-03-03T04:26:00.294Z,45.40
2024-03-03T04:28:27.698Z,42.60
2024-03-03T04:30:55.254Z,40.10
2024-03-03T04:33:22.865Z,36.10
2024-03-03T04:35:50.523Z,40.30
2024-03-03T04:38:18.187Z,37.50
2024-03-03T04:40:45.860Z,40.40
2024-03-03T04:43:13.484Z,36.30
2024-03-03T04:45:41.295Z,35.60
2024-03-03T04:48:08.877Z,37.50
2024-03-03T04:50:36.604Z,37.20
2024-03-03T04:53:04.177Z,34.90
2024-03-03T04:55:31.820Z,30.10
2024-03-03T04:57:59.486Z,35.40
2024-03-03T05:00:27.159Z,30.40
2024-03-03T05:02:54.701Z,32.10
2024-03-03T05:05:22.348Z,34.10
2024-03-03T05:07:50.031Z,35.20
2024-03-03T05:10:17.722Z,34.70
2024-03-03T05:12:45.392Z,34.50
2024-03-03T05:15:13.013Z,32.20
2024-03-03T05:17:40.697Z,30.20
2024-03-03T05:20:08.565Z,26.70
2024-03-03T05:22:36.191Z,34.10
2024-03-03T05:25:03.795Z,34.20
2024-03-03T05:27:31.627Z,28.00
2024-03-03T05:29:59.283Z,31.90
2024-03-03T05:32:26.874Z,30.40
2024-03-03T05:34:54.512Z,29.10
2024-03-03T05:37:22.342Z,28.60
2024-03-03T05:39:50.348Z,27.80
2024-03-03T05:42:18.005Z,25.10
2024-03-03T05:44:45.561Z,26.40
2024-03-03T05:47:13.130Z,30.40
2024-03-03T05:49:40.695Z,27.10
2024-03-03T05:52:08.256Z,28.80
2024-03-03T05:54:35.900Z,28.10
2024-03-03T05:57:03.555Z,22.70
2024-03-03T05:59:31.423Z,19.70
2024-03-03T06:01:59.160Z,16.50
2024-03-03T06:04:26.973Z,15.60
2024-03-03T06:06:54.738Z,16.10
2024-03-03T06:09:22.381Z,14.50
2024-03-03T06:11:49.945Z,12.50
2024-03-03T06:14:17.594Z,15.20
2024-03-03T06:16:45.168Z,15.30
2024-03-03T06:19:12.862Z,11.90
2024-03-03T06:21:41.022Z,12.70
2024-03-03T06:24:08.655Z,12.30
2024-03-03T06:26:36.234Z,14.80
2024-03-03T06:29:06.808Z,12.80
2024-03-03T06:34:02.612Z,12.20
2024-03-03T06:36:30.127Z,13.50
2024-03-03T06:38:57.800Z,14.70
2024-03-03T06:41:25.766Z,11.60
2024-03-03T06:43:53.429Z,11.70
2024-03-03T06:46:21.044Z,12.70
2024-03-03T06:48:48.781Z,10.40
2024-03-03T06:51:16.512Z,11.80
2024-03-03T06:53:43.974Z,12.60
2024-03-03T06:56:11.527Z,11.40
2024-03-03T06:58:39.090Z,11.10
2024-03-03T07:01:06.848Z,11.80
2024-03-03T07:03:34.922Z,14.00
2024-03-03T07:06:02.498Z,11.00
2024-03-03T07:08:29.948Z,11.80
2024-03-03T07:10:57.518Z,10.30
2024-03-03T07:13:25.252Z,11.00
2024-03-03T07:15:52.956Z,9.50
2024-03-03T07:18:20.684Z,10.50
2024-03-03T07:20:48.342Z,9.80
2024-03-03T07:23:15.905Z,8.80
2024-03-03T07:25:43.579Z,9.90
2024-03-03T07:28:11.308Z,9.30
2024-03-03T07:30:39.086Z,10.40
2024-03-03T07:33:06.809Z,10.30
2024-03-03T07:35:34.409Z,9.30
2024-03-03T07:38:02.075Z,8.10
2024-03-03T07:40:29.724Z,8.30
2024-03-03T07:42:57.428Z,8.90
2024-03-03T07:45:25.060Z,8.40
2024-03-03T07:47:52.724Z,9.00
2024-03-03T07:50:20.281Z,7.50
2024-03-03T07:52:47.937Z,8.20
2024-03-03T07:55:15.548Z,7.30
2024-03-03T07:57:43.321Z,8.00
2024-03-03T08:00:11.023Z,7.70
2024-03-03T08:02:38.586Z,8.90
2024-03-03T08:05:06.152Z,7.10
2024-03-03T08:07:33.697Z,8.70
2024-03-03T08:10:01.399Z,7.40
2024-03-03T08:12:29.038Z,9.60
2024-03-03T08:14:56.686Z,8.20
2024-03-03T08:17:24.241Z,8.70
2024-03-03T08:19:51.803Z,9.10
2024-03-03T08:22:19.506Z,12.00
2024-03-03T08:24:47.327Z,10.60
2024-03-03T08:27:15.011Z,10.10
2024-03-03T08:29:42.972Z,10.70
2024-03-03T08:32:10.521Z,9.60
2024-03-03T08:34:38.187Z,11.10
2024-03-03T08:37:05.779Z,10.50
2024-03-03T08:39:33.530Z,10.30
2024-03-03T08:42:01.162Z,10.40
2024-03-03T08:44:28.741Z,12.30
2024-03-03T08:46:56.398Z,10.30
2024-03-03T08:49:23.972Z,10.20
2024-03-03T08:51:51.988Z,10.70
2024-03-03T08:54:19.680Z,9.50
2024-03-03T08:56:47.337Z,11.60
2024-03-03T08:59:14.913Z,10.50
2024-03-03T09:01:42.704Z,11.20
2024-03-03T09:04:13.419Z,11.90
2024-03-03T09:06:41.701Z,10.20
2024-03-03T09:09:09.337Z,10.40
2024-03-03T09:11:37.336Z,10.70
2024-03-03T09:14:05.073Z,11.70
2024-03-03T09:16:32.667Z,10.60
2024-03-03T09:19:00.638Z,9.80
2024-03-03T09:21:28.362Z,11.10
2024-03-03T09:23:56.032Z,9.70
2024-03-03T09:26:23.676Z,8.70
2024-03-03T09:28:51.661Z,8.70
2024-03-03T09:31:19.265Z,10.80
2024-03-03T09:33:47.493Z,9.30
2024-03-03T09:36:15.124Z,7.70
2024-03-03T09:38:42.909Z,11.30
2024-03-03T09:41:10.471Z,8.70
2024-03-03T09:43:38.129Z,10.00
2024-03-03T09:46:07.208Z,10.20
2024-03-03T09:48:35.805Z,9.10
2024-03-03T09:51:03.463Z,8.10
2024-03-03T09:53:31.121Z,8.40
2024-03-03T09:55:58.997Z,10.30
2024-03-03T09:58:26.703Z,8.70
2024-03-03T10:00:54.493Z,7.90
2024-03-03T10:03:22.182Z,9.30
2024-03-03T10:05:49.745Z,9.70
2024-03-03T10:08:17.303Z,9.90
2024-03-03T10:10:47.707Z,8.00
2024-03-03T10:15:43.576Z,8.70
2024-03-03T10:18:11.132Z,11.80
2024-03-03T10:20:38.795Z,8.90
2024-03-03T10:23:06.468Z,10.10
2024-03-03T10:25:34.158Z,8.70
2024-03-03T10:28:02.016Z,10.70
2024-03-03T10:30:29.633Z,11.60
2024-03-03T10:32:57.246Z,8.40
2024-03-03T10:35:25.246Z,10.20
2024-03-03T10:37:52.945Z,9.10
2024-03-03T10:40:20.657Z,8.60
2024-03-03T10:42:48.468Z,9.40
2024-03-03T10:45:16.117Z,8.30
2024-03-03T10:47:43.834Z,9.00
2024-03-03T10:50:11.553Z,10.50
2024-03-03T10:52:39.200Z,9.10
2024-03-03T10:55:06.799Z,9.80
2024-03-03T10:57:34.539Z,9.70
2024-03-03T11:00:02.171Z,9.00
2024-03-03T11:02:29.857Z,10.10
2024-03-03T11:04:57.405Z,10.10
2024-03-03T11:07:24.986Z,9.90
2024-03-03T11:09:52.650Z,9.70
2024-03-03T11:12:20.290Z,10.30
2024-03-03T11:14:47.843Z,8.80
2024-03-03T11:17:15.410Z,9.40
2024-03-03T11:19:43.370Z,9.00
2024-03-03T11:22:10.969Z,9.60
2024-03-03T11:24:38.591Z,8.10
2024-03-03T11:27:06.310Z,9.80
2024-03-03T11:29:33.964Z,9.70
2024-03-03T11:32:01.679Z,9.50
2024-03-03T11:34:29.379Z,9.50
2024-03-03T11:36:57.032Z,9.50
2024-03-03T11:39:24.870Z,8.90
2024-03-03T11:41:52.424Z,9.70
2024-03-03T11:44:19.986Z,8.90
2024-03-03T11:46:47.548Z,9.40
2024-03-03T11:49:15.017Z,8.90
2024-03-03T11:51:42.862Z,8.80
2024-03-03T11:54:10.539Z,10.40
2024-03-03T11:56:38.092Z,9.20
2024-03-03T11:59:06.056Z,12.30
2024-03-03T12:01:33.868Z,9.70
2024-03-03T12:04:01.830Z,10.20
2024-03-03T12:06:29.799Z,11.00
2024-03-03T12:08:57.516Z,10.70
2024-03-03T12:11:25.107Z,10.50
2024-03-03T12:13:52.857Z,10.90
2024-03-03T12:16:20.443Z,9.80
2024-03-03T12:18:48.307Z,8.50
2024-03-03T12:21:16.232Z,8.80
2024-03-03T12:23:43.904Z,7.80
2024-03-03T12:26:11.570Z,8.30
2024-03-03T12:28:39.024Z,9.80
2024-03-03T12:31:06.680Z,9.00
2024-03-03T12:33:34.235Z,7.20
2024-03-03T12:36:01.808Z,9.00
2024-03-03T12:38:29.350Z,8.80
2024-03-03T12:40:57.011Z,9.80
2024-03-03T12:43:24.630Z,7.10
2024-03-03T12:45:52.763Z,7.40
2024-03-03T12:48:20.406Z,8.40
2024-03-03T12:50:48.072Z,8.40
2024-03-03T12:53:22.900Z,10.80
2024-03-03T12:55:55.602Z,8.50
2024-03-03T12:58:23.185Z,9.30
2024-03-03T13:00:51.089Z,7.70
2024-03-03T13:03:19.075Z,8.50
2024-03-03T13:05:46.641Z,8.50
2024-03-03T13:08:14.617Z,8.20
2024-03-03T13:10:42.340Z,9.40
2024-03-03T13:13:10.064Z,7.10
2024-03-03T13:15:44.236Z,8.00
2024-03-03T13:18:17.053Z,9.80
2024-03-03T13:20:44.929Z,12.30
2024-03-03T13:23:13.548Z,9.20
2024-03-03T13:25:41.647Z,8.20
2024-03-03T13:28:09.649Z,9.30
2024-03-03T13:30:37.280Z,7.10
2024-03-03T13:33:04.896Z,9.60
2024-03-03T13:35:32.507Z,8.70
2024-03-03T13:38:00.154Z,7.70
2024-03-03T13:40:27.800Z,6.80
2024-03-03T13:42:55.625Z,8.90
2024-03-03T13:45:23.348Z,6.30
2024-03-03T13:47:51.375Z,9.50
2024-03-03T13:50:18.977Z,14.00
2024-03-03T13:52:46.541Z,7.30
2024-03-03T13:55:14.132Z,6.90
2024-03-03T13:57:41.855Z,8.10
2024-03-03T14:00:09.426Z,6.70
2024-03-03T14:02:37.088Z,6.40
2024-03-03T14:05:04.642Z,6.60
2024-03-03T14:07:32.853Z,7.40
2024-03-03T14:10:00.539Z,6.60
2024-03-03T14:12:28.339Z,7.00
2024-03-03T14:14:55.992Z,6.00
2024-03-03T14:17:23.660Z,6.90
2024-03-03T14:19:51.219Z,7.20
2024-03-03T14:22:18.812Z,6.40
2024-03-03T14:24:46.448Z,6.60
2024-03-03T14:27:13.997Z,6.90
2024-03-03T14:29:41.562Z,6.30
2024-03-03T14:32:09.111Z,6.60
2024-03-03T14:34:36.785Z,6.60
2024-03-03T14:37:04.401Z,6.70
2024-03-03T14:39:32.196Z,7.10
2024-03-03T14:41:59.762Z,9.00
2024-03-03T14:44:27.425Z,7.30
2024-03-03T14:46:54.978Z,7.10
2024-03-03T14:49:23.002Z,7.30
2024-03-03T14:51:50.763Z,7.40
2024-03-03T14:54:18.396Z,6.50
2024-03-03T14:56:46.047Z,7.30
2024-03-03T14:59:13.591Z,12.80
2024-03-03T15:01:41.370Z,7.70
2024-03-03T15:04:09.027Z,6.30
2024-03-03T15:06:36.573Z,7.30
2024-03-03T15:09:04.546Z,6.90
2024-03-03T15:11:32.273Z,5.60
2024-03-03T15:14:02.244Z,6.20
2024-03-03T15:16:30.421Z,5.80
2024-03-03T15:18:58.087Z,6.90
2024-03-03T15:21:25.621Z,7.90
2024-03-03T15:23:53.296Z,6.00
2024-03-03T15:26:20.844Z,7.10
2024-03-03T15:28:48.502Z,9.20
2024-03-03T15:31:16.499Z,7.20
2024-03-03T15:33:44.134Z,8.40
2024-03-03T15:36:11.689Z,8.40
2024-03-03T15:38:39.149Z,6.40
2024-03-03T15:41:06.704Z,6.70
2024-03-03T15:43:34.307Z,6.90
2024-03-03T15:46:02.057Z,5.90
2024-03-03T15:48:29.685Z,5.90
2024-03-03T15:50:57.356Z,6.70
2024-03-03T15:53:24.903Z,6.70
2024-03-03T15:55:53.585Z,6.30
2024-03-03T15:58:22.180Z,7.50
2024-03-03T16:00:49.838Z,6.70
2024-03-03T16:03:17.494Z,11.20
2024-03-03T16:05:45.164Z,11.10
2024-03-03T16:08:12.721Z,9.60
2024-03-03T16:10:40.364Z,12.20
2024-03-03T16:13:08.055Z,13.80
2024-03-03T16:15:35.703Z,21.80
2024-03-03T16:18:03.724Z,12.70
2024-03-03T16:20:31.325Z,13.30
2024-03-03T16:22:59.026Z,17.40
2024-03-03T16:25:26.591Z,7.80
2024-03-03T16:27:54.341Z,12.30
2024-03-03T16:30:21.880Z,14.80
2024-03-03T16:32:49.558Z,14.50
2024-03-03T16:35:17.298Z,15.40
2024-03-03T16:37:45.059Z,11.80
2024-03-03T16:40:12.895Z,10.00
2024-03-03T16:42:40.674Z,8.40
2024-03-03T16:45:08.587Z,8.30
2024-03-03T16:47:36.442Z,7.70
2024-03-03T16:50:04.085Z,8.30
2024-03-03T16:52:31.659Z,8.00
2024-03-03T16:54:59.331Z,7.70
2024-03-03T16:57:27.281Z,7.20
2024-03-03T16:59:54.855Z,8.20
2024-03-03T17:02:22.392Z,8.60
2024-03-03T17:04:50.050Z,11.30
2024-03-03T17:07:17.675Z,11.30
2024-03-03T17:09:45.494Z,12.10
2024-03-03T17:12:13.106Z,11.20
2024-03-03T17:14:40.919Z,11.00
2024-03-03T17:17:08.475Z,11.00
2024-03-03T17:19:36.215Z,11.80
2024-03-03T17:22:03.950Z,12.00
2024-03-03T17:24:31.751Z,12.20
2024-03-03T17:26:59.307Z,17.50
2024-03-03T17:29:26.872Z,19.70
2024-03-03T17:31:54.437Z,17.20
2024-03-03T17:34:22.068Z,24.50
2024-03-03T17:36:49.872Z,15.40
2024-03-03T17:39:17.721Z,15.50
2024-03-03T17:41:45.405Z,14.30
2024-03-03T17:44:12.944Z,14.10
2024-03-03T17:46:40.604Z,17.70
2024-03-03T17:49:08.209Z,15.00
2024-03-03T17:51:35.951Z,17.80
2024-03-03T17:54:03.586Z,19.10
2024-03-03T17:56:31.256Z,22.30
2024-03-03T17:58:58.920Z,21.90
2024-03-03T18:01:26.598Z,28.50
2024-03-03T18:03:54.267Z,24.10
2024-03-03T18:06:21.901Z,19.70
2024-03-03T18:08:49.472Z,24.50
2024-03-03T18:11:17.160Z,15.80
2024-03-03T18:13:44.671Z,15.30
2024-03-03T18:16:12.393Z,13.50
2024-03-03T18:18:39.794Z,11.60
2024-03-03T18:21:07.861Z,13.90
2024-03-03T18:23:35.440Z,13.90
2024-03-03T18:26:03.190Z,12.30
2024-03-03T18:28:30.835Z,14.70
2024-03-03T18:30:58.581Z,11.60
2024-03-03T18:33:26.518Z,12.20
2024-03-03T18:35:54.038Z,12.10
2024-03-03T18:38:21.694Z,11.30
2024-03-03T18:40:49.259Z,11.10
2024-03-03T18:43:17.170Z,15.00
2024-03-03T18:45:44.793Z,15.10
2024-03-03T18:48:12.456Z,18.20
2024-03-03T18:50:41.768Z,21.90
2024-03-03T18:53:10.743Z,23.30
2024-03-03T18:55:38.438Z,33.50
2024-03-03T18:58:05.976Z,17.50
2024-03-03T19:00:33.634Z,14.50
2024-03-03T19:03:01.585Z,21.80
2024-03-03T19:05:29.160Z,14.70
2024-03-03T19:07:56.718Z,15.10
2024-03-03T19:10:24.400Z,11.10
2024-03-03T19:12:51.976Z,16.50
2024-03-03T19:15:19.689Z,15.70
2024-03-03T19:17:47.278Z,19.60
2024-03-03T19:20:14.909Z,15.80
2024-03-03T19:22:42.572Z,28.20
2024-03-03T19:25:10.577Z,24.40
2024-03-03T19:27:38.096Z,27.00
2024-03-03T19:30:05.657Z,19.40
2024-03-03T19:32:33.242Z,21.00
2024-03-03T19:35:00.878Z,19.90
2024-03-03T19:37:28.566Z,15.60
2024-03-03T19:39:56.308Z,20.30
2024-03-03T19:42:23.864Z,18.00
2024-03-03T19:44:51.830Z,21.30
2024-03-03T19:47:19.389Z,19.60
2024-03-03T19:49:47.047Z,16.90
2024-03-03T19:52:15.369Z,21.50
2024-03-03T19:54:43.302Z,25.50
2024-03-03T19:57:10.856Z,24.60
2024-03-03T19:59:38.414Z,30.60
2024-03-03T20:02:06.074Z,41.50
2024-03-03T20:04:34.009Z,24.40
2024-03-03T20:07:01.851Z,30.00
2024-03-03T20:09:29.486Z,18.40
2024-03-03T20:11:57.126Z,20.70
2024-03-03T20:14:24.686Z,16.30
2024-03-03T20:16:52.461Z,14.10
2024-03-03T20:19:20.137Z,13.50
2024-03-03T20:21:47.775Z,16.00
2024-03-03T20:24:15.331Z,19.20
2024-03-03T20:26:43.310Z,19.70
2024-03-03T20:29:13.246Z,20.10
2024-03-03T20:31:41.495Z,15.50
2024-03-03T20:34:09.363Z,19.10
2024-03-03T20:36:37.028Z,16.70
2024-03-03T20:39:04.679Z,19.00
2024-03-03T20:41:32.250Z,14.50
2024-03-03T20:43:59.908Z,19.00
2024-03-03T20:46:27.809Z,16.60
2024-03-03T20:48:55.640Z,15.90
2024-03-03T20:51:23.291Z,13.00
2024-03-03T20:53:50.652Z,15.40
2024-03-03T20:56:18.306Z,16.30
2024-03-03T20:58:45.666Z,16.70
2024-03-03T21:01:13.496Z,15.60
2024-03-03T21:03:41.290Z,17.90
2024-03-03T21:06:08.845Z,15.50
2024-03-03T21:08:36.410Z,14.00
2024-03-03T21:11:04.317Z,16.30
2024-03-03T21:13:32.196Z,15.60
2024-03-03T21:15:59.813Z,18.70
2024-03-03T21:18:27.572Z,15.60
2024-03-03T21:20:55.139Z,17.60
2024-03-03T21:23:22.826Z,18.10
2024-03-03T21:25:50.345Z,19.00
2024-03-03T21:28:18.072Z,18.60
2024-03-03T21:30:45.669Z,17.80
2024-03-03T21:33:13.236Z,20.60
2024-03-03T21:35:41.196Z,15.80
2024-03-03T21:38:08.760Z,20.20
2024-03-03T21:40:36.453Z,16.40
2024-03-03T21:43:03.989Z,20.00
2024-03-03T21:45:31.529Z,20.70
2024-03-03T21:47:59.152Z,23.10
2024-03-03T21:50:26.955Z,22.80
2024-03-03T21:52:54.527Z,18.90
2024-03-03T21:55:22.328Z,19.10
2024-03-03T21:57:49.942Z,18.30
2024-03-03T22:00:17.523Z,16.50
2024-03-03T22:02:45.115Z,18.90
2024-03-03T22:05:13.025Z,22.20
2024-03-03T22:07:40.781Z,23.60
2024-03-03T22:10:08.574Z,21.70
2024-03-03T22:12:36.330Z,21.40
2024-03-03T22:15:04.286Z,17.00
2024-03-03T22:17:31.859Z,20.40
2024-03-03T22:19:59.510Z,19.60
2024-03-03T22:22:27.123Z,18.70
2024-03-03T22:24:54.876Z,19.90
2024-03-03T22:27:22.498Z,19.00
2024-03-03T22:29:50.054Z,18.00
2024-03-03T22:32:17.721Z,17.20
2024-03-03T22:34:45.490Z,21.80
2024-03-03T22:37:13.415Z,28.20
2024-03-03T22:39:40.922Z,29.80
2024-03-03T22:42:08.566Z,30.90
2024-03-03T22:44:36.116Z,34.30
2024-03-03T22:47:03.687Z,43.10
2024-03-03T22:49:31.516Z,40.50
2024-03-03T22:51:59.520Z,49.10
2024-03-03T22:54:27.279Z,44.10
2024-03-03T22:56:55.300Z,43.70
2024-03-03T22:59:23.017Z,45.70
2024-03-03T23:01:50.744Z,43.20
2024-03-03T23:04:18.367Z,39.90
2024-03-03T23:06:46.000Z,42.50
2024-03-03T23:09:13.629Z,49.80
2024-03-03T23:11:41.364Z,40.60
2024-03-03T23:14:08.985Z,36.80
2024-03-03T23:16:36.725Z,37.10
2024-03-03T23:19:04.530Z,39.60
2024-03-03T23:21:32.071Z,43.50
2024-03-03T23:23:59.737Z,41.60
2024-03-03T23:26:27.393Z,44.50
2024-03-03T23:28:54.947Z,38.30
2024-03-03T23:31:22.553Z,42.30
2024-03-03T23:33:50.273Z,35.90
2024-03-03T23:36:17.831Z,35.90
2024-03-03T23:38:45.299Z,38.80
2024-03-03T23:41:12.839Z,35.40
2024-03-03T23:43:40.483Z,34.40
2024-03-03T23:46:08.210Z,34.80
2024-03-03T23:48:35.927Z,33.10
2024-03-03T23:51:03.501Z,37.60
2024-03-03T23:53:31.164Z,31.80
2024-03-03T23:55:58.714Z,28.20
2024-03-03T23:58:26.464Z,30.40
